createdAt,value
2023-05-09T00:01:20.705Z,11.07
2023-05-09T00:03:47.523Z,11.13
2023-05-09T00:06:15.359Z,10.82
2023-05-09T00:08:41.941Z,10.48
2023-05-09T00:11:08.538Z,11.10
2023-05-09T00:13:35.762Z,10.60
2023-05-09T00:16:03.518Z,9.80
2023-05-09T00:18:31.141Z,10.35
2023-05-09T00:20:58.170Z,10.07
2023-05-09T00:23:24.759Z,8.85
2023-05-09T00:25:51.411Z,9.05
2023-05-09T00:28:18.042Z,9.23
2023-05-09T00:30:44.691Z,9.65
2023-05-09T00:33:11.756Z,9.52
2023-05-09T00:35:38.444Z,9.65
2023-05-09T00:38:05.357Z,9.15
2023-05-09T00:40:31.996Z,10.25
2023-05-09T00:42:59.677Z,9.50
2023-05-09T00:45:26.726Z,11.02
2023-05-09T00:47:55.638Z,10.63
2023-05-09T00:50:22.319Z,9.73
2023-05-09T00:52:49.024Z,10.48
2023-05-09T00:55:16.361Z,10.18
2023-05-09T00:57:43.290Z,9.55
2023-05-09T01:00:13.337Z,8.85
2023-05-09T01:02:46.645Z,7.97
2023-05-09T01:05:15.111Z,8.13
2023-05-09T01:08:03.145Z,9.02
2023-05-09T01:10:55.124Z,8.48
2023-05-09T01:13:30.103Z,9.15
2023-05-09T01:15:59.654Z,9.10
2023-05-09T01:18:33.391Z,7.43
2023-05-09T01:21:11.276Z,9.40
2023-05-09T01:23:44.180Z,8.60
2023-05-09T01:26:20.099Z,8.30
2023-05-09T01:29:28.505Z,8.40
2023-05-09T01:31:57.640Z,9.32
2023-05-09T01:34:27.122Z,8.63
2023-05-09T01:36:58.551Z,8.27
2023-05-09T01:39:26.792Z,7.82
2023-05-09T01:41:56.574Z,9.93
2023-05-09T01:44:25.533Z,9.30
2023-05-09T01:46:54.805Z,9.43
2023-05-09T01:49:22.748Z,10.57
2023-05-09T01:51:51.049Z,11.07
2023-05-09T01:54:18.657Z,10.82
2023-05-09T01:56:47.090Z,11.23
2023-05-09T01:59:16.446Z,10.88
2023-05-09T02:01:45.548Z,10.27
2023-05-09T02:04:15.868Z,10.45
2023-05-09T02:06:44.661Z,10.43
2023-05-09T02:09:12.865Z,11.30
2023-05-09T02:11:40.539Z,9.13
2023-05-09T02:14:07.934Z,8.80
2023-05-09T02:16:35.452Z,9.65
2023-05-09T02:19:02.621Z,10.13
2023-05-09T02:21:29.350Z,9.68
2023-05-09T02:23:56.098Z,9.32
2023-05-09T02:26:23.084Z,9.57
2023-05-09T02:28:50.802Z,9.50
2023-05-09T02:31:20.297Z,8.10
2023-05-09T02:33:48.003Z,9.98
2023-05-09T02:36:16.592Z,9.13
2023-05-09T02:38:44.099Z,9.68
2023-05-09T02:41:14.866Z,9.13
2023-05-09T02:43:42.025Z,7.97
2023-05-09T02:46:10.234Z,8.60
2023-05-09T02:48:37.465Z,8.18
2023-05-09T02:51:05.047Z,8.38
2023-05-09T02:53:31.761Z,8.20
2023-05-09T02:55:58.721Z,8.90
2023-05-09T02:58:25.390Z,8.60
2023-05-09T03:00:52.007Z,9.00
2023-05-09T03:03:19.302Z,9.32
2023-05-09T03:05:46.579Z,8.65
2023-05-09T03:08:13.238Z,8.48
2023-05-09T03:10:39.913Z,9.52
2023-05-09T03:13:08.426Z,9.02
2023-05-09T03:15:35.194Z,9.45
2023-05-09T03:18:02.861Z,10.10
2023-05-09T03:20:29.672Z,8.85
2023-05-09T03:22:56.329Z,9.05
2023-05-09T03:25:22.987Z,9.63
2023-05-09T03:27:49.726Z,9.57
2023-05-09T03:30:16.451Z,9.27
2023-05-09T03:32:45.547Z,9.68
2023-05-09T03:35:12.430Z,9.13
2023-05-09T03:37:39.094Z,8.18
2023-05-09T03:40:07.809Z,9.32
2023-05-09T03:42:41.000Z,8.00
2023-05-09T03:45:08.127Z,8.77
2023-05-09T03:47:34.769Z,9.57
2023-05-09T03:50:01.830Z,10.35
2023-05-09T03:52:28.904Z,9.93
2023-05-09T03:54:55.639Z,9.70
2023-05-09T03:57:22.631Z,8.10
2023-05-09T03:59:51.313Z,8.68
2023-05-09T04:02:18.191Z,8.15
2023-05-09T04:04:47.323Z,9.38
2023-05-09T04:07:16.975Z,9.23
2023-05-09T04:09:45.160Z,9.23
2023-05-09T04:12:11.936Z,9.68
2023-05-09T04:14:39.270Z,9.48
2023-05-09T04:17:05.975Z,8.90
2023-05-09T04:19:32.715Z,9.43
2023-05-09T04:21:59.330Z,9.25
2023-05-09T04:24:26.443Z,9.40
2023-05-09T04:26:53.359Z,9.18
2023-05-09T04:29:23.066Z,8.15
2023-05-09T04:31:53.702Z,9.23
2023-05-09T04:34:23.769Z,8.43
2023-05-09T04:36:52.205Z,9.55
2023-05-09T04:39:19.710Z,8.85
2023-05-09T04:41:55.817Z,8.05
2023-05-09T04:44:23.426Z,7.00
2023-05-09T04:46:50.712Z,7.20
2023-05-09T04:49:17.346Z,7.93
2023-05-09T04:51:43.913Z,8.85
2023-05-09T04:54:10.575Z,8.55
2023-05-09T04:56:39.044Z,7.95
2023-05-09T04:59:05.767Z,8.38
2023-05-09T05:01:32.557Z,10.70
2023-05-09T05:04:00.017Z,9.52
2023-05-09T05:06:26.754Z,9.10
2023-05-09T05:08:53.312Z,8.70
2023-05-09T05:11:20.569Z,9.55
2023-05-09T05:13:47.245Z,9.35
2023-05-09T05:16:14.012Z,8.27
2023-05-09T05:18:41.157Z,9.00
2023-05-09T05:21:08.504Z,9.48
2023-05-09T05:23:35.366Z,9.15
2023-05-09T05:26:02.796Z,9.98
2023-05-09T05:28:31.393Z,9.85
2023-05-09T05:30:58.373Z,8.57
2023-05-09T05:33:25.094Z,9.35
2023-05-09T05:35:52.363Z,8.40
2023-05-09T05:38:19.318Z,8.77
2023-05-09T05:40:49.801Z,8.90
2023-05-09T05:43:16.722Z,9.15
2023-05-09T05:45:43.361Z,8.38
2023-05-09T05:48:15.395Z,10.02
2023-05-09T05:50:42.349Z,10.65
2023-05-09T05:53:10.060Z,10.68
2023-05-09T05:55:37.113Z,10.32
2023-05-09T05:58:05.206Z,9.43
2023-05-09T06:00:31.769Z,9.23
2023-05-09T06:03:03.710Z,9.02
2023-05-09T06:05:50.957Z,9.32
2023-05-09T06:08:17.984Z,10.52
2023-05-09T06:10:44.620Z,9.73
2023-05-09T06:13:11.276Z,9.05
2023-05-09T06:15:41.112Z,9.32
2023-05-09T06:18:08.780Z,9.80
2023-05-09T06:20:36.056Z,9.93
2023-05-09T06:23:02.661Z,10.52
2023-05-09T06:25:29.584Z,11.13
2023-05-09T06:27:56.328Z,10.38
2023-05-09T06:30:26.759Z,10.32
2023-05-09T06:32:54.963Z,11.15
2023-05-09T06:35:21.893Z,10.55
2023-05-09T06:37:49.017Z,10.50
2023-05-09T06:40:16.848Z,10.73
2023-05-09T06:42:43.753Z,10.18
2023-05-09T06:45:11.466Z,10.00
2023-05-09T06:47:38.118Z,10.10
2023-05-09T06:50:05.212Z,9.30
2023-05-09T06:52:31.759Z,9.63
2023-05-09T06:54:58.276Z,10.50
2023-05-09T06:57:25.059Z,10.82
2023-05-09T06:59:51.738Z,10.43
2023-05-09T07:02:18.596Z,8.98
2023-05-09T07:04:45.244Z,9.20
2023-05-09T07:07:11.899Z,8.73
2023-05-09T07:09:38.483Z,8.18
2023-05-09T07:12:05.557Z,7.75
2023-05-09T07:14:32.159Z,8.38
2023-05-09T07:17:13.775Z,7.90
2023-05-09T07:19:45.699Z,7.38
2023-05-09T07:22:13.514Z,8.02
2023-05-09T07:24:40.238Z,7.57
2023-05-09T07:27:07.108Z,8.10
2023-05-09T07:29:33.626Z,7.18
2023-05-09T07:32:00.504Z,6.50
2023-05-09T07:34:27.378Z,7.47
2023-05-09T07:36:54.646Z,7.43
2023-05-09T07:39:21.259Z,7.18
2023-05-09T07:41:48.775Z,6.57
2023-05-09T07:44:15.988Z,7.18
2023-05-09T07:46:42.880Z,6.90
2023-05-09T07:49:09.613Z,7.32
2023-05-09T07:51:36.213Z,6.97
2023-05-09T07:54:03.052Z,7.80
2023-05-09T07:56:29.606Z,6.75
2023-05-09T07:58:56.152Z,6.88
2023-05-09T08:01:22.755Z,7.18
2023-05-09T08:03:49.627Z,6.35
2023-05-09T08:06:16.277Z,6.80
2023-05-09T08:08:42.862Z,7.20
2023-05-09T08:11:09.703Z,6.53
2023-05-09T08:13:36.526Z,7.30
2023-05-09T08:16:03.214Z,6.53
2023-05-09T08:18:29.799Z,5.82
2023-05-09T08:20:56.489Z,6.18
2023-05-09T08:23:23.000Z,5.93
2023-05-09T08:25:54.229Z,5.57
2023-05-09T08:30:51.736Z,5.47
2023-05-09T08:33:18.490Z,5.05
2023-05-09T08:35:45.758Z,5.95
2023-05-09T08:38:12.310Z,6.30
2023-05-09T08:40:40.798Z,5.45
2023-05-09T08:43:08.049Z,5.25
2023-05-09T08:46:06.886Z,5.00
2023-05-09T08:48:37.552Z,5.15
2023-05-09T08:51:07.675Z,4.45
2023-05-09T08:53:34.313Z,4.18
2023-05-09T08:56:03.745Z,3.30
2023-05-09T08:58:31.472Z,4.70
2023-05-09T09:00:59.118Z,4.90
2023-05-09T09:03:26.309Z,3.70
2023-05-09T09:05:54.922Z,4.18
2023-05-09T09:08:22.380Z,3.92
2023-05-09T09:10:49.565Z,3.10
2023-05-09T09:13:17.690Z,2.13
2023-05-09T09:15:46.311Z,2.47
2023-05-09T09:18:19.700Z,2.35
2023-05-09T09:21:15.771Z,2.15
2023-05-09T09:23:44.022Z,1.77
2023-05-09T09:26:10.987Z,1.52
2023-05-09T09:28:37.650Z,1.73
2023-05-09T09:31:21.798Z,1.77
2023-05-09T09:33:49.235Z,1.48
2023-05-09T09:36:15.805Z,2.00
2023-05-09T09:38:43.927Z,1.80
2023-05-09T09:41:12.891Z,1.30
2023-05-09T09:43:45.480Z,1.48
2023-05-09T09:46:14.390Z,1.30
2023-05-09T09:48:50.333Z,1.73
2023-05-09T09:51:18.436Z,1.80
2023-05-09T09:53:45.141Z,2.03
2023-05-09T09:56:11.803Z,1.40
2023-05-09T09:58:38.964Z,1.90
2023-05-09T10:01:16.697Z,1.67
2023-05-09T10:03:48.095Z,1.38
2023-05-09T10:06:16.438Z,1.30
2023-05-09T10:08:48.874Z,1.48
2023-05-09T10:11:15.488Z,1.20
2023-05-09T10:13:43.717Z,1.25
2023-05-09T10:16:11.638Z,1.40
2023-05-09T10:18:41.135Z,1.27
2023-05-09T10:21:11.299Z,1.08
2023-05-09T10:23:38.316Z,1.00
2023-05-09T10:26:22.996Z,1.05
2023-05-09T10:28:54.795Z,1.27
2023-05-09T10:31:29.273Z,1.00
2023-05-09T10:33:56.520Z,1.40
2023-05-09T10:36:26.344Z,1.00
2023-05-09T10:38:54.959Z,1.00
2023-05-09T10:41:22.521Z,1.10
2023-05-09T10:43:49.606Z,1.10
2023-05-09T10:46:16.814Z,0.98
2023-05-09T10:48:44.527Z,1.20
2023-05-09T10:51:13.064Z,0.85
2023-05-09T10:53:45.857Z,1.10
2023-05-09T10:56:32.502Z,1.30
2023-05-09T10:59:00.298Z,0.98
2023-05-09T11:01:39.231Z,1.20
2023-05-09T11:04:11.139Z,0.95
2023-05-09T11:06:52.234Z,1.00
2023-05-09T11:09:33.294Z,0.80
2023-05-09T11:12:09.645Z,0.90
2023-05-09T11:14:47.844Z,0.73
2023-05-09T11:17:21.222Z,1.33
2023-05-09T11:19:47.815Z,0.90
2023-05-09T11:22:22.266Z,0.90
2023-05-09T11:24:58.965Z,0.60
2023-05-09T11:27:28.484Z,0.80
2023-05-09T11:29:59.488Z,0.60
2023-05-09T11:32:40.404Z,0.70
2023-05-09T11:35:09.406Z,0.60
2023-05-09T11:37:51.338Z,0.60
2023-05-09T11:40:20.259Z,0.70
2023-05-09T11:42:50.080Z,0.57
2023-05-09T11:45:17.702Z,0.57
2023-05-09T11:47:46.272Z,0.60
2023-05-09T11:50:14.530Z,0.85
2023-05-09T11:52:42.118Z,0.68
2023-05-09T11:55:13.067Z,0.57
2023-05-09T11:57:41.624Z,0.70
2023-05-09T12:00:10.411Z,0.75
2023-05-09T12:02:38.302Z,0.98
2023-05-09T12:05:13.642Z,1.10
2023-05-09T12:07:41.550Z,0.98
2023-05-09T12:10:09.254Z,1.30
2023-05-09T12:12:46.337Z,1.10
2023-05-09T12:15:14.171Z,1.00
2023-05-09T12:17:47.073Z,1.20
2023-05-09T12:20:15.198Z,1.40
2023-05-09T12:22:44.887Z,1.00
2023-05-09T12:25:12.282Z,0.90
2023-05-09T12:27:40.660Z,1.10
2023-05-09T12:30:10.296Z,1.05
2023-05-09T12:32:40.317Z,1.60
2023-05-09T12:35:09.632Z,1.75
2023-05-09T12:37:36.440Z,1.40
2023-05-09T12:40:05.011Z,2.55
2023-05-09T12:42:32.310Z,3.17
2023-05-09T12:44:59.664Z,2.72
2023-05-09T12:47:30.082Z,2.60
2023-05-09T12:50:01.551Z,2.03
2023-05-09T12:52:38.127Z,2.47
2023-05-09T12:55:13.848Z,1.80
2023-05-09T12:57:41.983Z,1.90
2023-05-09T13:00:10.243Z,2.08
2023-05-09T13:02:39.844Z,1.40
2023-05-09T13:05:10.899Z,2.70
2023-05-09T13:07:45.154Z,2.58
2023-05-09T13:10:12.758Z,2.28
2023-05-09T13:12:40.478Z,2.53
2023-05-09T13:15:08.491Z,1.83
2023-05-09T13:17:35.120Z,2.47
2023-05-09T13:20:01.812Z,1.95
2023-05-09T13:22:28.591Z,2.00
2023-05-09T13:24:55.176Z,1.83
2023-05-09T13:27:21.785Z,2.35
2023-05-09T13:29:48.545Z,2.70
2023-05-09T13:32:15.117Z,2.20
2023-05-09T13:34:42.470Z,2.42
2023-05-09T13:37:09.009Z,2.10
2023-05-09T13:39:35.922Z,2.40
2023-05-09T13:42:02.564Z,2.25
2023-05-09T13:44:29.199Z,1.90
2023-05-09T13:46:57.630Z,1.83
2023-05-09T13:49:24.288Z,2.60
2023-05-09T13:51:50.879Z,2.47
2023-05-09T13:54:19.668Z,2.30
2023-05-09T13:56:46.242Z,3.10
2023-05-09T13:59:12.981Z,3.28
2023-05-09T14:01:39.709Z,2.80
2023-05-09T14:04:06.442Z,1.90
2023-05-09T14:06:33.358Z,2.00
2023-05-09T14:08:59.959Z,2.38
2023-05-09T14:11:26.728Z,2.50
2023-05-09T14:13:53.515Z,2.38
2023-05-09T14:16:21.094Z,1.80
2023-05-09T14:18:48.405Z,2.83
2023-05-09T14:21:15.522Z,3.70
2023-05-09T14:23:42.278Z,4.18
2023-05-09T14:26:08.965Z,3.55
2023-05-09T14:28:36.887Z,3.42
2023-05-09T14:31:03.599Z,3.80
2023-05-09T14:33:30.859Z,3.70
2023-05-09T14:35:57.504Z,3.80
2023-05-09T14:38:24.190Z,4.40
2023-05-09T14:40:50.938Z,4.50
2023-05-09T14:43:17.527Z,4.20
2023-05-09T14:45:44.381Z,4.68
2023-05-09T14:48:12.267Z,3.17
2023-05-09T14:50:40.098Z,3.88
2023-05-09T14:53:07.083Z,3.70
2023-05-09T14:55:33.908Z,4.22
2023-05-09T14:58:00.535Z,4.63
2023-05-09T15:00:28.534Z,4.38
2023-05-09T15:02:56.131Z,3.92
2023-05-09T15:05:22.802Z,3.97
2023-05-09T15:07:49.483Z,3.65
2023-05-09T15:10:16.332Z,4.35
2023-05-09T15:12:43.319Z,3.85
2023-05-09T15:15:13.292Z,4.28
2023-05-09T15:17:39.947Z,4.13
2023-05-09T15:20:07.453Z,3.55
2023-05-09T15:22:34.565Z,3.33
2023-05-09T15:25:02.036Z,3.47
2023-05-09T15:27:29.497Z,2.95
2023-05-09T15:29:56.205Z,2.90
2023-05-09T15:32:22.891Z,3.70
2023-05-09T15:34:49.510Z,3.40
2023-05-09T15:37:16.223Z,3.65
2023-05-09T15:39:43.642Z,3.00
2023-05-09T15:42:12.284Z,3.88
2023-05-09T15:44:40.106Z,4.15
2023-05-09T15:47:07.504Z,3.65
2023-05-09T15:49:34.477Z,3.30
2023-05-09T15:52:05.341Z,3.47
2023-05-09T15:54:33.556Z,3.13
2023-05-09T15:57:00.685Z,3.25
2023-05-09T15:59:27.662Z,2.78
2023-05-09T16:01:55.078Z,3.40
2023-05-09T16:04:22.107Z,2.90
2023-05-09T16:06:49.022Z,3.42
2023-05-09T16:09:15.832Z,3.47
2023-05-09T16:11:42.850Z,3.30
2023-05-09T16:14:11.432Z,2.97
2023-05-09T16:16:39.491Z,3.45
2023-05-09T16:19:06.779Z,3.90
2023-05-09T16:21:33.621Z,3.03
2023-05-09T16:24:02.949Z,3.67
2023-05-09T16:26:29.641Z,2.58
2023-05-09T16:28:56.654Z,3.30
2023-05-09T16:31:26.647Z,2.70
2023-05-09T16:33:54.205Z,2.93
2023-05-09T16:36:21.317Z,2.75
2023-05-09T16:38:48.131Z,2.85
2023-05-09T16:41:15.297Z,2.80
2023-05-09T16:43:42.718Z,3.00
2023-05-09T16:46:09.458Z,2.80
2023-05-09T16:48:36.145Z,2.33
2023-05-09T16:51:03.338Z,2.53
2023-05-09T16:53:29.934Z,3.00
2023-05-09T16:55:56.982Z,2.20
2023-05-09T16:58:23.672Z,2.53
2023-05-09T17:00:50.967Z,2.40
2023-05-09T17:03:17.625Z,2.75
2023-05-09T17:05:44.223Z,3.10
2023-05-09T17:08:11.334Z,2.95
2023-05-09T17:10:39.495Z,2.67
2023-05-09T17:13:08.842Z,2.70
2023-05-09T17:15:35.809Z,3.20
2023-05-09T17:18:03.137Z,3.17
2023-05-09T17:20:30.874Z,3.30
2023-05-09T17:22:57.848Z,3.08
2023-05-09T17:25:24.559Z,3.15
2023-05-09T17:27:51.100Z,3.33
2023-05-09T17:30:19.909Z,3.25
2023-05-09T17:32:48.048Z,3.10
2023-05-09T17:35:15.070Z,3.00
2023-05-09T17:37:41.666Z,2.78
2023-05-09T17:40:08.798Z,3.13
2023-05-09T17:42:35.430Z,3.83
2023-05-09T17:45:02.017Z,3.60
2023-05-09T17:47:29.096Z,3.30
2023-05-09T17:49:55.727Z,3.03
2023-05-09T17:52:22.599Z,2.60
2023-05-09T17:54:49.237Z,3.25
2023-05-09T17:57:15.772Z,3.85
2023-05-09T17:59:42.580Z,3.22
2023-05-09T18:02:09.181Z,3.85
2023-05-09T18:04:36.092Z,3.33
2023-05-09T18:07:02.754Z,3.70
2023-05-09T18:09:29.495Z,4.07
2023-05-09T18:11:56.109Z,4.30
2023-05-09T18:14:22.700Z,4.32
2023-05-09T18:16:49.367Z,3.92
2023-05-09T18:19:16.208Z,4.00
2023-05-09T18:21:42.897Z,3.80
2023-05-09T18:24:09.563Z,3.42
2023-05-09T18:26:36.189Z,3.67
2023-05-09T18:29:02.769Z,4.07
2023-05-09T18:31:31.235Z,4.05
2023-05-09T18:33:58.009Z,3.90
2023-05-09T18:36:24.637Z,4.13
2023-05-09T18:38:51.275Z,3.85
2023-05-09T18:41:18.018Z,4.10
2023-05-09T18:43:45.949Z,4.63
2023-05-09T18:46:17.461Z,3.75
2023-05-09T18:48:45.350Z,4.40
2023-05-09T18:51:12.156Z,3.95
2023-05-09T18:53:38.944Z,3.70
2023-05-09T18:56:05.651Z,4.40
2023-05-09T18:58:32.510Z,4.53
2023-05-09T19:00:59.226Z,4.40
2023-05-09T19:03:27.174Z,3.80
2023-05-09T19:05:54.362Z,4.00
2023-05-09T19:08:21.067Z,3.80
2023-05-09T19:10:47.850Z,4.35
2023-05-09T19:13:16.264Z,3.70
2023-05-09T19:15:43.614Z,3.40
2023-05-09T19:18:10.224Z,3.70
2023-05-09T19:20:36.873Z,3.50
2023-05-09T19:23:03.600Z,3.83
2023-05-09T19:25:33.650Z,3.25
2023-05-09T19:28:00.730Z,3.30
2023-05-09T19:30:27.459Z,3.00
2023-05-09T19:32:54.142Z,3.55
2023-05-09T19:35:20.837Z,3.50
2023-05-09T19:37:47.436Z,3.60
2023-05-09T19:40:14.819Z,3.38
2023-05-09T19:42:41.939Z,3.65
2023-05-09T19:45:09.166Z,3.67
2023-05-09T19:47:35.994Z,3.78
2023-05-09T19:50:02.686Z,3.67
2023-05-09T19:52:29.934Z,4.07
2023-05-09T19:54:56.672Z,3.90
2023-05-09T19:57:23.382Z,3.42
2023-05-09T19:59:49.897Z,6.55
2023-05-09T20:02:16.445Z,12.55
2023-05-09T20:04:49.721Z,8.45
2023-05-09T20:07:17.284Z,6.65
2023-05-09T20:09:44.092Z,4.75
2023-05-09T20:12:10.883Z,2.30
2023-05-09T20:14:37.642Z,1.30
2023-05-09T20:17:05.368Z,1.10
2023-05-09T20:19:33.183Z,1.00
2023-05-09T20:22:01.186Z,1.10
2023-05-09T20:24:28.610Z,1.02
2023-05-09T20:26:55.281Z,0.77
2023-05-09T20:29:22.045Z,1.00
2023-05-09T20:31:48.752Z,1.10
2023-05-09T20:34:17.938Z,0.80
2023-05-09T20:36:52.151Z,0.70
2023-05-09T20:39:23.202Z,0.77
2023-05-09T20:41:50.690Z,0.60
2023-05-09T20:44:17.876Z,0.40
2023-05-09T20:46:45.340Z,0.50
2023-05-09T20:49:12.467Z,0.40
2023-05-09T20:51:39.203Z,0.57
2023-05-09T20:54:06.421Z,0.50
2023-05-09T20:56:35.420Z,0.40
2023-05-09T20:59:03.988Z,0.70
2023-05-09T21:01:32.576Z,0.65
2023-05-09T21:03:59.368Z,0.50
2023-05-09T21:06:26.042Z,0.52
2023-05-09T21:08:52.680Z,0.65
2023-05-09T21:11:19.337Z,0.55
2023-05-09T21:13:45.906Z,0.40
2023-05-09T21:16:12.524Z,0.40
2023-05-09T21:18:39.076Z,0.60
2023-05-09T21:21:08.057Z,0.60
2023-05-09T21:23:34.963Z,0.70
2023-05-09T21:26:02.425Z,0.50
2023-05-09T21:28:29.331Z,0.82
2023-05-09T21:30:56.298Z,0.52
2023-05-09T21:33:22.994Z,0.50
2023-05-09T21:35:49.664Z,0.40
2023-05-09T21:38:16.244Z,0.70
2023-05-09T21:40:42.827Z,0.60
2023-05-09T21:43:09.434Z,0.57
2023-05-09T21:45:36.002Z,0.75
2023-05-09T21:48:02.842Z,0.40
2023-05-09T21:50:29.483Z,0.30
2023-05-09T21:52:59.202Z,0.50
2023-05-09T21:55:25.891Z,1.13
2023-05-09T21:57:52.485Z,0.65
2023-05-09T22:00:19.630Z,0.52
2023-05-09T22:02:47.007Z,0.20
2023-05-09T22:05:13.713Z,0.50
2023-05-09T22:07:40.337Z,0.60
2023-05-09T22:10:07.595Z,0.52
2023-05-09T22:12:34.186Z,0.50
2023-05-09T22:15:00.904Z,0.60
2023-05-09T22:17:27.692Z,0.40
2023-05-09T22:19:54.541Z,0.32
2023-05-09T22:22:21.371Z,0.40
2023-05-09T22:24:49.600Z,0.43
2023-05-09T22:27:16.343Z,0.40
2023-05-09T22:29:42.880Z,0.40
2023-05-09T22:32:10.032Z,0.40
2023-05-09T22:34:36.816Z,0.50
2023-05-09T22:37:03.573Z,0.47
2023-05-09T22:39:30.894Z,0.82
2023-05-09T22:41:57.506Z,0.38
2023-05-09T22:44:24.067Z,0.28
2023-05-09T22:46:50.800Z,0.20
2023-05-09T22:49:17.685Z,0.30
2023-05-09T22:51:44.266Z,0.40
2023-05-09T22:54:10.917Z,0.30
2023-05-09T22:56:37.538Z,0.38
2023-05-09T22:59:04.541Z,0.35
2023-05-09T23:01:31.559Z,0.43
2023-05-09T23:03:58.160Z,0.50
2023-05-09T23:06:25.001Z,0.30
2023-05-09T23:08:51.763Z,0.60
2023-05-09T23:11:18.484Z,0.20
2023-05-09T23:13:45.178Z,0.40
2023-05-09T23:16:11.738Z,0.52
2023-05-09T23:18:38.437Z,0.30
2023-05-09T23:21:05.182Z,0.40
2023-05-09T23:23:31.752Z,0.30
2023-05-09T23:25:58.738Z,0.40
2023-05-09T23:28:25.381Z,0.50
2023-05-09T23:30:53.893Z,0.47
2023-05-09T23:33:20.587Z,0.30
2023-05-09T23:35:48.225Z,0.38
2023-05-09T23:38:15.007Z,0.32
2023-05-09T23:40:45.031Z,0.30
2023-05-09T23:43:12.644Z,0.30
2023-05-09T23:45:39.881Z,0.32
2023-05-09T23:48:07.499Z,0.30
2023-05-09T23:50:34.196Z,0.50
2023-05-09T23:53:00.839Z,0.30
2023-05-09T23:55:27.959Z,0.35
2023-05-09T23:57:54.700Z,0.30
